Traverse City, MI (49686)

2:23 PM EDT on April 28, 2015 (GMT -0400)
bunger | | Change Station
CLOSE
Current Station
Personal Weather Station
Location: Traverse City, MI
Elevation: 646 ft
Nearby Weather Stations

Elev 646 ft 44.77 °N, 85.58 °W | Updated 4 seconds ago

Mostly Cloudy
Mostly Cloudy
51.6 °F
Feels Like 51.6 °F
N
9.0
Wind Variable Wind from East
Gusts 10.0 mph

Today
High -- | Low -- °F
--% Chance of Precip.
Yesterday
High -- | Low -- °F
Precip. -- in
6:37 AM 8:43 PM
Waxing Gibbous, 75% visible
Pressure 30.12 in
Visibility 10.0 miles
Clouds Mostly Cloudy 4100 ft
Dew Point 37 °F
Humidity 57%
Rainfall 0.00 in
Snow Depth Not available.
UV 5 out of 12
Pollen 10.00 out of 12
Air Quality Not available.
Flu Activity Regional
METAR KTVC 281753Z 04008KT 10SM BKN041 11/02 A3011 RMK AO2 SLP199 T01110022 10117 20028 58016

More Conditions Fewer Conditions

Pressure 30.12 in
Visibility 10.0 miles
Clouds Mostly Cloudy 4100 ft
Dew Point 37 °F
Humidity 57%
Rainfall 0.00 in
Snow Depth Not available.
UV 5 out of 12
Pollen 10.00 out of 12
Air Quality Not available.
Flu Activity Regional
METAR KTVC 281753Z 04008KT 10SM BKN041 11/02 A3011 RMK AO2 SLP199 T01110022 10117 20028 58016

More Conditions Fewer Conditions

Nowcast | as of 2:00 PM EDT on April 28, 2015

At 3 PM...partly cloudy. Temperature 55. North winds 7 mph. At 5 PM...mostly clear. Temperature 56. North winds 8 mph. At 7 PM...mostly clear. Temperature 53. North winds 6 mph. At 9 PM...mostly clear. Temperature 49. Light winds.

×

10-Day Weather Forecast

Almanac

Astronomy

Apr. 28, 2015 Rise Set
Actual Time
Civil Twilight
Nautical Twilight
Astronomical Twilight
Moon
Length of Visible Light
Length of Day
Tomorrow will be .
, % of the Moon is Illuminated

Today's Extremes

State Highs State Lows

Community

WunderPhotos

Upload Photos

1,817,720 photos uploaded!

WunderBlogs® & News

Nearby

Air Quality

  Air Quality AQ Index Pollutant
Not available.

Snow Depth

Station Depth Elevation

Earthquake Activity

City Distance Mag. Time & Date
Minimum magnitude displayed is 2.5.

Coastal Water Temperatures

Place Temperature

Stations

Nearby Weather Stations

Station Location Temp. Windchill Dew Point Humidity Wind Precip. Elev Updated Type